Time;durP1;ratioP1;P1;durP2;ratioP2;P2;SDS_P1;SDS_P2;PMS_P1;PMS_P2;Temp;Humidity;BMP_temperature;BMP_pressure;BME280_temperature;BME280_humidity;BME280_pressure;Samples;Min_cycle;Max_cycle;Signal;HPM_P1;HPM_P2
2020/11/26 00:00:22;;;;;;;53.1;17.45;;;;;;;1.62;77.72852;95677.48;;;;
2020/11/26 00:01:23;;;;;;;53.1;17.45;;;;;;;1.62;77.72852;95677.48;;;;
2020/11/26 00:02:23;;;;;;;53.1;17.45;;;;;;;1.62;77.72852;95677.48;;;;
2020/11/26 00:03:24;;;;;;;53.1;17.45;;;;;;;1.62;77.72852;95677.48;;;;
2020/11/26 00:04:25;;;;;;;53.1;17.45;;;;;;;1.62;77.72852;95677.48;;;;
2020/11/26 00:05:25;;;;;;;53.1;17.45;;;;;;;1.62;77.72852;95677.48;;;;
2020/11/26 00:06:26;;;;;;;53.1;17.45;;;;;;;1.62;77.72852;95677.48;;;;
2020/11/26 00:07:31;;;;;;;53.1;17.45;;;;;;;1.62;77.72852;95677.48;;;;
2020/11/26 00:08:32;;;;;;;53.1;17.45;;;;;;;1.62;77.72852;95677.48;;;;
2020/11/26 00:09:33;;;;;;;53.1;17.45;;;;;;;1.62;77.72852;95677.48;;;;
2020/11/26 00:10:33;;;;;;;53.1;17.45;;;;;;;1.62;77.72852;95677.48;;;;
2020/11/26 00:11:33;;;;;;;47.95;17.4;;;;;;;1.71;77.72461;95681.77;;;;
2020/11/26 00:12:34;;;;;;;47.95;17.4;;;;;;;1.71;77.72461;95681.77;;;;
2020/11/26 00:13:34;;;;;;;47.95;17.4;;;;;;;1.71;77.72461;95681.77;;;;
2020/11/26 00:14:35;;;;;;;47.95;17.4;;;;;;;1.71;77.72461;95681.77;;;;
2020/11/26 00:15:36;;;;;;;47.95;17.4;;;;;;;1.71;77.72461;95681.77;;;;
2020/11/26 00:16:36;;;;;;;47.95;17.4;;;;;;;1.71;77.72461;95681.77;;;;
2020/11/26 00:17:37;;;;;;;47.95;17.4;;;;;;;1.71;77.72461;95681.77;;;;
2020/11/26 00:18:37;;;;;;;47.95;17.4;;;;;;;1.71;77.72461;95681.77;;;;
2020/11/26 00:19:38;;;;;;;47.95;17.4;;;;;;;1.71;77.72461;95681.77;;;;
2020/11/26 00:20:38;;;;;;;47.95;17.4;;;;;;;1.71;77.72461;95681.77;;;;
2020/11/26 00:21:39;;;;;;;31.9;16.3;;;;;;;1.69;77.70117;95676.59;;;;
2020/11/26 00:22:39;;;;;;;31.9;16.3;;;;;;;1.69;77.70117;95676.59;;;;
2020/11/26 00:23:40;;;;;;;31.9;16.3;;;;;;;1.69;77.70117;95676.59;;;;
2020/11/26 00:24:41;;;;;;;31.9;16.3;;;;;;;1.69;77.70117;95676.59;;;;
2020/11/26 00:25:42;;;;;;;31.9;16.3;;;;;;;1.69;77.70117;95676.59;;;;
2020/11/26 00:26:42;;;;;;;31.9;16.3;;;;;;;1.69;77.70117;95676.59;;;;
2020/11/26 00:27:43;;;;;;;31.9;16.3;;;;;;;1.69;77.70117;95676.59;;;;
2020/11/26 00:28:44;;;;;;;31.9;16.3;;;;;;;1.69;77.70117;95676.59;;;;
2020/11/26 00:29:44;;;;;;;31.9;16.3;;;;;;;1.69;77.70117;95676.59;;;;
2020/11/26 00:30:45;;;;;;;31.9;16.3;;;;;;;1.69;77.70117;95676.59;;;;
2020/11/26 00:31:45;;;;;;;31.9;16.3;;;;;;;1.69;77.70117;95676.59;;;;
2020/11/26 00:32:46;;;;;;;31.5;15;;;;;;;1.76;78.54199;95685.16;;;;
2020/11/26 00:33:46;;;;;;;31.5;15;;;;;;;1.76;78.54199;95685.16;;;;
2020/11/26 00:34:47;;;;;;;31.5;15;;;;;;;1.76;78.54199;95685.16;;;;
2020/11/26 00:35:47;;;;;;;31.5;15;;;;;;;1.76;78.54199;95685.16;;;;
2020/11/26 00:36:48;;;;;;;31.5;15;;;;;;;1.76;78.54199;95685.16;;;;
2020/11/26 00:37:49;;;;;;;31.5;15;;;;;;;1.76;78.54199;95685.16;;;;
2020/11/26 00:38:49;;;;;;;31.5;15;;;;;;;1.76;78.54199;95685.16;;;;
2020/11/26 00:39:51;;;;;;;31.5;15;;;;;;;1.76;78.54199;95685.16;;;;
2020/11/26 00:40:52;;;;;;;31.5;15;;;;;;;1.76;78.54199;95685.16;;;;
2020/11/26 00:41:55;;;;;;;31.5;15;;;;;;;1.76;78.54199;95685.16;;;;
2020/11/26 00:42:56;;;;;;;31.5;15;;;;;;;1.76;78.54199;95685.16;;;;
2020/11/26 00:43:56;;;;;;;35.65;14.7;;;;;;;1.81;78.21387;95691.28;;;;
2020/11/26 00:44:57;;;;;;;35.65;14.7;;;;;;;1.81;78.21387;95691.28;;;;
2020/11/26 00:45:57;;;;;;;35.65;14.7;;;;;;;1.81;78.21387;95691.28;;;;
2020/11/26 00:46:58;;;;;;;35.65;14.7;;;;;;;1.81;78.21387;95691.28;;;;
2020/11/26 00:47:58;;;;;;;35.65;14.7;;;;;;;1.81;78.21387;95691.28;;;;
2020/11/26 00:48:59;;;;;;;35.65;14.7;;;;;;;1.81;78.21387;95691.28;;;;
2020/11/26 00:49:59;;;;;;;35.65;14.7;;;;;;;1.81;78.21387;95691.28;;;;
2020/11/26 00:51:00;;;;;;;35.65;14.7;;;;;;;1.81;78.21387;95691.28;;;;
2020/11/26 00:52:00;;;;;;;35.65;14.7;;;;;;;1.81;78.21387;95691.28;;;;
2020/11/26 00:53:01;;;;;;;35.65;14.7;;;;;;;1.81;78.21387;95691.28;;;;
2020/11/26 00:54:01;;;;;;;39.2;14.25;;;;;;;1.81;78.23633;95699.69;;;;
2020/11/26 00:55:02;;;;;;;39.2;14.25;;;;;;;1.81;78.23633;95699.69;;;;
2020/11/26 00:56:03;;;;;;;39.2;14.25;;;;;;;1.81;78.23633;95699.69;;;;
2020/11/26 00:57:04;;;;;;;39.2;14.25;;;;;;;1.81;78.23633;95699.69;;;;
2020/11/26 00:58:04;;;;;;;39.2;14.25;;;;;;;1.81;78.23633;95699.69;;;;
2020/11/26 00:59:05;;;;;;;39.2;14.25;;;;;;;1.81;78.23633;95699.69;;;;
2020/11/26 01:00:06;;;;;;;39.2;14.25;;;;;;;1.81;78.23633;95699.69;;;;
2020/11/26 01:01:07;;;;;;;39.2;14.25;;;;;;;1.81;78.23633;95699.69;;;;
2020/11/26 01:02:08;;;;;;;39.2;14.25;;;;;;;1.81;78.23633;95699.69;;;;
2020/11/26 01:03:08;;;;;;;39.2;14.25;;;;;;;1.81;78.23633;95699.69;;;;
2020/11/26 01:04:09;;;;;;;39.2;14.25;;;;;;;1.81;78.23633;95699.69;;;;
2020/11/26 01:05:09;;;;;;;72.64999;14.8;;;;;;;1.7;78.10059;95717.77;;;;
2020/11/26 01:06:10;;;;;;;72.64999;14.8;;;;;;;1.7;78.10059;95717.77;;;;
2020/11/26 01:07:14;;;;;;;72.64999;14.8;;;;;;;1.7;78.10059;95717.77;;;;
2020/11/26 01:08:16;;;;;;;72.64999;14.8;;;;;;;1.7;78.10059;95717.77;;;;
2020/11/26 01:09:16;;;;;;;72.64999;14.8;;;;;;;1.7;78.10059;95717.77;;;;
2020/11/26 01:10:17;;;;;;;72.64999;14.8;;;;;;;1.7;78.10059;95717.77;;;;
2020/11/26 01:11:18;;;;;;;72.64999;14.8;;;;;;;1.7;78.10059;95717.77;;;;
2020/11/26 01:12:19;;;;;;;72.64999;14.8;;;;;;;1.7;78.10059;95717.77;;;;
2020/11/26 01:13:19;;;;;;;72.64999;14.8;;;;;;;1.7;78.10059;95717.77;;;;
2020/11/26 01:14:20;;;;;;;72.64999;14.8;;;;;;;1.7;78.10059;95717.77;;;;
2020/11/26 01:15:20;;;;;;;42.25;14.7;;;;;;;1.57;78.44238;95719.22;;;;
2020/11/26 01:16:21;;;;;;;42.25;14.7;;;;;;;1.57;78.44238;95719.22;;;;
2020/11/26 01:17:21;;;;;;;42.25;14.7;;;;;;;1.57;78.44238;95719.22;;;;
2020/11/26 01:18:22;;;;;;;42.25;14.7;;;;;;;1.57;78.44238;95719.22;;;;
2020/11/26 01:19:22;;;;;;;42.25;14.7;;;;;;;1.57;78.44238;95719.22;;;;
2020/11/26 01:20:23;;;;;;;42.25;14.7;;;;;;;1.57;78.44238;95719.22;;;;
2020/11/26 01:21:23;;;;;;;42.25;14.7;;;;;;;1.57;78.44238;95719.22;;;;
2020/11/26 01:22:24;;;;;;;42.25;14.7;;;;;;;1.57;78.44238;95719.22;;;;
2020/11/26 01:23:25;;;;;;;42.25;14.7;;;;;;;1.57;78.44238;95719.22;;;;
2020/11/26 01:24:26;;;;;;;42.25;14.7;;;;;;;1.57;78.44238;95719.22;;;;
2020/11/26 01:25:26;;;;;;;42.25;14.7;;;;;;;1.57;78.44238;95719.22;;;;
2020/11/26 01:26:27;;;;;;;30.7;13.8;;;;;;;1.48;78.86426;95723.39;;;;
2020/11/26 01:27:27;;;;;;;30.7;13.8;;;;;;;1.48;78.86426;95723.39;;;;
2020/11/26 01:28:28;;;;;;;30.7;13.8;;;;;;;1.48;78.86426;95723.39;;;;
2020/11/26 01:29:28;;;;;;;30.7;13.8;;;;;;;1.48;78.86426;95723.39;;;;
2020/11/26 01:30:29;;;;;;;30.7;13.8;;;;;;;1.48;78.86426;95723.39;;;;
2020/11/26 01:31:29;;;;;;;30.7;13.8;;;;;;;1.48;78.86426;95723.39;;;;
2020/11/26 01:32:30;;;;;;;30.7;13.8;;;;;;;1.48;78.86426;95723.39;;;;
2020/11/26 01:33:31;;;;;;;30.7;13.8;;;;;;;1.48;78.86426;95723.39;;;;
2020/11/26 01:34:32;;;;;;;30.7;13.8;;;;;;;1.48;78.86426;95723.39;;;;
2020/11/26 01:35:32;;;;;;;30.7;13.8;;;;;;;1.48;78.86426;95723.39;;;;
2020/11/26 01:36:33;;;;;;;68.74999;15.1;;;;;;;1.47;79.07422;95719.08;;;;
2020/11/26 01:37:33;;;;;;;68.74999;15.1;;;;;;;1.47;79.07422;95719.08;;;;
2020/11/26 01:38:34;;;;;;;68.74999;15.1;;;;;;;1.47;79.07422;95719.08;;;;
2020/11/26 01:39:34;;;;;;;68.74999;15.1;;;;;;;1.47;79.07422;95719.08;;;;
2020/11/26 01:40:35;;;;;;;68.74999;15.1;;;;;;;1.47;79.07422;95719.08;;;;
2020/11/26 01:41:35;;;;;;;68.74999;15.1;;;;;;;1.47;79.07422;95719.08;;;;
2020/11/26 01:42:36;;;;;;;68.74999;15.1;;;;;;;1.47;79.07422;95719.08;;;;
2020/11/26 01:43:36;;;;;;;68.74999;15.1;;;;;;;1.47;79.07422;95719.08;;;;
2020/11/26 01:44:37;;;;;;;68.74999;15.1;;;;;;;1.47;79.07422;95719.08;;;;
2020/11/26 01:45:38;;;;;;;68.74999;15.1;;;;;;;1.47;79.07422;95719.08;;;;
2020/11/26 01:46:38;;;;;;;68.74999;15.1;;;;;;;1.47;79.07422;95719.08;;;;
2020/11/26 01:47:56;;;;;;;61;14.75;;;;;;;1.53;79.07422;95726.4;;;;
2020/11/26 01:48:57;;;;;;;61;14.75;;;;;;;1.53;79.07422;95726.4;;;;
2020/11/26 01:49:57;;;;;;;61;14.75;;;;;;;1.53;79.07422;95726.4;;;;
2020/11/26 01:50:58;;;;;;;61;14.75;;;;;;;1.53;79.07422;95726.4;;;;
2020/11/26 01:51:59;;;;;;;61;14.75;;;;;;;1.53;79.07422;95726.4;;;;
2020/11/26 01:53:01;;;;;;;61;14.75;;;;;;;1.53;79.07422;95726.4;;;;
2020/11/26 01:54:01;;;;;;;61;14.75;;;;;;;1.53;79.07422;95726.4;;;;
2020/11/26 01:55:02;;;;;;;61;14.75;;;;;;;1.53;79.07422;95726.4;;;;
2020/11/26 01:56:02;;;;;;;61;14.75;;;;;;;1.53;79.07422;95726.4;;;;
2020/11/26 01:57:03;;;;;;;61;14.75;;;;;;;1.53;79.07422;95726.4;;;;
2020/11/26 01:58:08;;;;;;;66.65001;14.25;;;;;;;1.53;78.84375;95725.45;;;;
2020/11/26 01:59:08;;;;;;;66.65001;14.25;;;;;;;1.53;78.84375;95725.45;;;;
2020/11/26 02:00:09;;;;;;;66.65001;14.25;;;;;;;1.53;78.84375;95725.45;;;;
2020/11/26 02:01:10;;;;;;;66.65001;14.25;;;;;;;1.53;78.84375;95725.45;;;;
2020/11/26 02:02:10;;;;;;;66.65001;14.25;;;;;;;1.53;78.84375;95725.45;;;;
2020/11/26 02:03:11;;;;;;;66.65001;14.25;;;;;;;1.53;78.84375;95725.45;;;;
2020/11/26 02:04:12;;;;;;;66.65001;14.25;;;;;;;1.53;78.84375;95725.45;;;;
2020/11/26 02:05:12;;;;;;;66.65001;14.25;;;;;;;1.53;78.84375;95725.45;;;;
2020/11/26 02:06:19;;;;;;;66.65001;14.25;;;;;;;1.53;78.84375;95725.45;;;;
2020/11/26 02:07:20;;;;;;;66.65001;14.25;;;;;;;1.53;78.84375;95725.45;;;;
2020/11/26 02:08:21;;;;;;;62.5;15.3;;;;;;;1.51;78.8418;95722.97;;;;
2020/11/26 02:09:21;;;;;;;62.5;15.3;;;;;;;1.51;78.8418;95722.97;;;;
2020/11/26 02:10:22;;;;;;;62.5;15.3;;;;;;;1.51;78.8418;95722.97;;;;
2020/11/26 02:11:22;;;;;;;62.5;15.3;;;;;;;1.51;78.8418;95722.97;;;;
2020/11/26 02:12:23;;;;;;;62.5;15.3;;;;;;;1.51;78.8418;95722.97;;;;
2020/11/26 02:13:23;;;;;;;62.5;15.3;;;;;;;1.51;78.8418;95722.97;;;;
2020/11/26 02:14:24;;;;;;;62.5;15.3;;;;;;;1.51;78.8418;95722.97;;;;
2020/11/26 02:15:25;;;;;;;62.5;15.3;;;;;;;1.51;78.8418;95722.97;;;;
2020/11/26 02:16:25;;;;;;;62.5;15.3;;;;;;;1.51;78.8418;95722.97;;;;
2020/11/26 02:17:26;;;;;;;62.5;15.3;;;;;;;1.51;78.8418;95722.97;;;;
2020/11/26 02:18:26;;;;;;;62.5;15.3;;;;;;;1.51;78.8418;95722.97;;;;
2020/11/26 02:19:27;;;;;;;45.19999;14.35;;;;;;;1.43;79.10742;95726.15;;;;
2020/11/26 02:20:27;;;;;;;45.19999;14.35;;;;;;;1.43;79.10742;95726.15;;;;
2020/11/26 02:21:28;;;;;;;45.19999;14.35;;;;;;;1.43;79.10742;95726.15;;;;
2020/11/26 02:22:29;;;;;;;45.19999;14.35;;;;;;;1.43;79.10742;95726.15;;;;
2020/11/26 02:23:40;;;;;;;45.19999;14.35;;;;;;;1.43;79.10742;95726.15;;;;
2020/11/26 02:24:41;;;;;;;45.19999;14.35;;;;;;;1.43;79.10742;95726.15;;;;
2020/11/26 02:25:46;;;;;;;45.19999;14.35;;;;;;;1.43;79.10742;95726.15;;;;
2020/11/26 02:26:46;;;;;;;45.19999;14.35;;;;;;;1.43;79.10742;95726.15;;;;
2020/11/26 02:27:47;;;;;;;45.19999;14.35;;;;;;;1.43;79.10742;95726.15;;;;
2020/11/26 02:28:48;;;;;;;45.19999;14.35;;;;;;;1.43;79.10742;95726.15;;;;
2020/11/26 02:29:48;;;;;;;35.05;15.5;;;;;;;1.39;79.30957;95732.81;;;;
2020/11/26 02:30:49;;;;;;;35.05;15.5;;;;;;;1.39;79.30957;95732.81;;;;
2020/11/26 02:31:50;;;;;;;35.05;15.5;;;;;;;1.39;79.30957;95732.81;;;;
2020/11/26 02:32:50;;;;;;;35.05;15.5;;;;;;;1.39;79.30957;95732.81;;;;
2020/11/26 02:33:51;;;;;;;35.05;15.5;;;;;;;1.39;79.30957;95732.81;;;;
2020/11/26 02:34:51;;;;;;;35.05;15.5;;;;;;;1.39;79.30957;95732.81;;;;
2020/11/26 02:35:52;;;;;;;35.05;15.5;;;;;;;1.39;79.30957;95732.81;;;;
2020/11/26 02:36:52;;;;;;;35.05;15.5;;;;;;;1.39;79.30957;95732.81;;;;
2020/11/26 02:37:53;;;;;;;35.05;15.5;;;;;;;1.39;79.30957;95732.81;;;;
2020/11/26 02:38:53;;;;;;;35.05;15.5;;;;;;;1.39;79.30957;95732.81;;;;
2020/11/26 02:39:54;;;;;;;35.05;15.5;;;;;;;1.39;79.30957;95732.81;;;;
2020/11/26 02:40:54;;;;;;;28.75;13.4;;;;;;;1.4;79.92773;95737.14;;;;
2020/11/26 02:41:55;;;;;;;28.75;13.4;;;;;;;1.4;79.92773;95737.14;;;;
2020/11/26 02:42:55;;;;;;;28.75;13.4;;;;;;;1.4;79.92773;95737.14;;;;
2020/11/26 02:43:56;;;;;;;28.75;13.4;;;;;;;1.4;79.92773;95737.14;;;;
2020/11/26 02:44:57;;;;;;;28.75;13.4;;;;;;;1.4;79.92773;95737.14;;;;
2020/11/26 02:45:57;;;;;;;28.75;13.4;;;;;;;1.4;79.92773;95737.14;;;;
2020/11/26 02:46:58;;;;;;;28.75;13.4;;;;;;;1.4;79.92773;95737.14;;;;
2020/11/26 02:47:59;;;;;;;28.75;13.4;;;;;;;1.4;79.92773;95737.14;;;;
2020/11/26 02:48:59;;;;;;;28.75;13.4;;;;;;;1.4;79.92773;95737.14;;;;
2020/11/26 02:50:00;;;;;;;28.75;13.4;;;;;;;1.4;79.92773;95737.14;;;;
2020/11/26 02:51:00;;;;;;;40.2;15;;;;;;;1.4;79.87695;95730.91;;;;
2020/11/26 02:52:01;;;;;;;40.2;15;;;;;;;1.4;79.87695;95730.91;;;;
2020/11/26 02:53:01;;;;;;;40.2;15;;;;;;;1.4;79.87695;95730.91;;;;
2020/11/26 02:54:02;;;;;;;40.2;15;;;;;;;1.4;79.87695;95730.91;;;;
2020/11/26 02:55:02;;;;;;;40.2;15;;;;;;;1.4;79.87695;95730.91;;;;
2020/11/26 02:56:03;;;;;;;40.2;15;;;;;;;1.4;79.87695;95730.91;;;;
2020/11/26 02:57:04;;;;;;;40.2;15;;;;;;;1.4;79.87695;95730.91;;;;
2020/11/26 02:58:04;;;;;;;40.2;15;;;;;;;1.4;79.87695;95730.91;;;;
2020/11/26 02:59:05;;;;;;;40.2;15;;;;;;;1.4;79.87695;95730.91;;;;
2020/11/26 03:00:05;;;;;;;40.2;15;;;;;;;1.4;79.87695;95730.91;;;;
2020/11/26 03:01:06;;;;;;;40.2;15;;;;;;;1.4;79.87695;95730.91;;;;
2020/11/26 03:02:07;;;;;;;35.2;14.35;;;;;;;1.48;80.04688;95739.77;;;;
2020/11/26 03:03:07;;;;;;;35.2;14.35;;;;;;;1.48;80.04688;95739.77;;;;
2020/11/26 03:04:08;;;;;;;35.2;14.35;;;;;;;1.48;80.04688;95739.77;;;;
2020/11/26 03:05:08;;;;;;;35.2;14.35;;;;;;;1.48;80.04688;95739.77;;;;
2020/11/26 03:06:09;;;;;;;35.2;14.35;;;;;;;1.48;80.04688;95739.77;;;;
2020/11/26 03:07:09;;;;;;;35.2;14.35;;;;;;;1.48;80.04688;95739.77;;;;
2020/11/26 03:08:10;;;;;;;35.2;14.35;;;;;;;1.48;80.04688;95739.77;;;;
2020/11/26 03:09:10;;;;;;;35.2;14.35;;;;;;;1.48;80.04688;95739.77;;;;
2020/11/26 03:10:11;;;;;;;35.2;14.35;;;;;;;1.48;80.04688;95739.77;;;;
2020/11/26 03:11:11;;;;;;;35.2;14.35;;;;;;;1.48;80.04688;95739.77;;;;
2020/11/26 03:12:12;;;;;;;35.2;14.35;;;;;;;1.48;80.04688;95739.77;;;;
2020/11/26 03:13:12;;;;;;;26.85;13.7;;;;;;;1.56;79.97852;95744.67;;;;
2020/11/26 03:14:13;;;;;;;26.85;13.7;;;;;;;1.56;79.97852;95744.67;;;;
2020/11/26 03:15:13;;;;;;;26.85;13.7;;;;;;;1.56;79.97852;95744.67;;;;
2020/11/26 03:16:14;;;;;;;26.85;13.7;;;;;;;1.56;79.97852;95744.67;;;;
2020/11/26 03:17:14;;;;;;;26.85;13.7;;;;;;;1.56;79.97852;95744.67;;;;
2020/11/26 03:18:15;;;;;;;26.85;13.7;;;;;;;1.56;79.97852;95744.67;;;;
2020/11/26 03:19:15;;;;;;;26.85;13.7;;;;;;;1.56;79.97852;95744.67;;;;
2020/11/26 03:20:16;;;;;;;26.85;13.7;;;;;;;1.56;79.97852;95744.67;;;;
2020/11/26 03:21:16;;;;;;;26.85;13.7;;;;;;;1.56;79.97852;95744.67;;;;
2020/11/26 03:22:17;;;;;;;26.85;13.7;;;;;;;1.56;79.97852;95744.67;;;;
2020/11/26 03:23:18;;;;;;;23.6;13.1;;;;;;;1.6;80.12305;95739.76;;;;
2020/11/26 03:24:18;;;;;;;23.6;13.1;;;;;;;1.6;80.12305;95739.76;;;;
2020/11/26 03:25:19;;;;;;;23.6;13.1;;;;;;;1.6;80.12305;95739.76;;;;
2020/11/26 03:26:19;;;;;;;23.6;13.1;;;;;;;1.6;80.12305;95739.76;;;;
2020/11/26 03:27:20;;;;;;;23.6;13.1;;;;;;;1.6;80.12305;95739.76;;;;
2020/11/26 03:28:21;;;;;;;23.6;13.1;;;;;;;1.6;80.12305;95739.76;;;;
2020/11/26 03:29:21;;;;;;;23.6;13.1;;;;;;;1.6;80.12305;95739.76;;;;
2020/11/26 03:30:22;;;;;;;23.6;13.1;;;;;;;1.6;80.12305;95739.76;;;;
2020/11/26 03:31:22;;;;;;;23.6;13.1;;;;;;;1.6;80.12305;95739.76;;;;
2020/11/26 03:32:23;;;;;;;23.6;13.1;;;;;;;1.6;80.12305;95739.76;;;;
2020/11/26 03:33:23;;;;;;;23.6;13.1;;;;;;;1.6;80.12305;95739.76;;;;
2020/11/26 03:34:24;;;;;;;25.85;13.2;;;;;;;1.61;80.04199;95746.73;;;;
2020/11/26 03:35:24;;;;;;;25.85;13.2;;;;;;;1.61;80.04199;95746.73;;;;
2020/11/26 03:36:25;;;;;;;25.85;13.2;;;;;;;1.61;80.04199;95746.73;;;;
2020/11/26 03:37:25;;;;;;;25.85;13.2;;;;;;;1.61;80.04199;95746.73;;;;
2020/11/26 03:38:26;;;;;;;25.85;13.2;;;;;;;1.61;80.04199;95746.73;;;;
2020/11/26 03:39:26;;;;;;;25.85;13.2;;;;;;;1.61;80.04199;95746.73;;;;
2020/11/26 03:40:27;;;;;;;25.85;13.2;;;;;;;1.61;80.04199;95746.73;;;;
2020/11/26 03:41:27;;;;;;;25.85;13.2;;;;;;;1.61;80.04199;95746.73;;;;
2020/11/26 03:42:28;;;;;;;25.85;13.2;;;;;;;1.61;80.04199;95746.73;;;;
2020/11/26 03:43:28;;;;;;;25.85;13.2;;;;;;;1.61;80.04199;95746.73;;;;
2020/11/26 03:44:29;;;;;;;23.2;11.85;;;;;;;1.64;80.40234;95743.73;;;;
2020/11/26 03:45:29;;;;;;;23.2;11.85;;;;;;;1.64;80.40234;95743.73;;;;
2020/11/26 03:46:30;;;;;;;23.2;11.85;;;;;;;1.64;80.40234;95743.73;;;;
2020/11/26 03:47:30;;;;;;;23.2;11.85;;;;;;;1.64;80.40234;95743.73;;;;
2020/11/26 03:48:31;;;;;;;23.2;11.85;;;;;;;1.64;80.40234;95743.73;;;;
2020/11/26 03:49:31;;;;;;;23.2;11.85;;;;;;;1.64;80.40234;95743.73;;;;
2020/11/26 03:50:31;;;;;;;23.2;11.85;;;;;;;1.64;80.40234;95743.73;;;;
2020/11/26 03:51:32;;;;;;;23.2;11.85;;;;;;;1.64;80.40234;95743.73;;;;
2020/11/26 03:52:32;;;;;;;23.2;11.85;;;;;;;1.64;80.40234;95743.73;;;;
2020/11/26 03:53:33;;;;;;;23.2;11.85;;;;;;;1.64;80.40234;95743.73;;;;
2020/11/26 03:54:33;;;;;;;23.2;11.85;;;;;;;1.64;80.40234;95743.73;;;;
2020/11/26 03:55:34;;;;;;;19.8;11.8;;;;;;;1.63;80.40039;95742.5;;;;
2020/11/26 03:56:34;;;;;;;19.8;11.8;;;;;;;1.63;80.40039;95742.5;;;;
2020/11/26 03:57:35;;;;;;;19.8;11.8;;;;;;;1.63;80.40039;95742.5;;;;
2020/11/26 03:58:35;;;;;;;19.8;11.8;;;;;;;1.63;80.40039;95742.5;;;;
2020/11/26 03:59:37;;;;;;;19.8;11.8;;;;;;;1.63;80.40039;95742.5;;;;
2020/11/26 04:00:38;;;;;;;19.8;11.8;;;;;;;1.63;80.40039;95742.5;;;;
2020/11/26 04:01:38;;;;;;;19.8;11.8;;;;;;;1.63;80.40039;95742.5;;;;
2020/11/26 04:02:38;;;;;;;19.8;11.8;;;;;;;1.63;80.40039;95742.5;;;;
2020/11/26 04:03:39;;;;;;;19.8;11.8;;;;;;;1.63;80.40039;95742.5;;;;
2020/11/26 04:04:40;;;;;;;19.8;11.8;;;;;;;1.63;80.40039;95742.5;;;;
2020/11/26 04:05:40;;;;;;;19.8;11.8;;;;;;;1.63;80.40039;95742.5;;;;
2020/11/26 04:06:41;;;;;;;18.5;10.55;;;;;;;1.56;80.29199;95743.34;;;;
2020/11/26 04:07:41;;;;;;;18.5;10.55;;;;;;;1.56;80.29199;95743.34;;;;
2020/11/26 04:08:42;;;;;;;18.5;10.55;;;;;;;1.56;80.29199;95743.34;;;;
2020/11/26 04:09:42;;;;;;;18.5;10.55;;;;;;;1.56;80.29199;95743.34;;;;
2020/11/26 04:10:43;;;;;;;18.5;10.55;;;;;;;1.56;80.29199;95743.34;;;;
2020/11/26 04:11:43;;;;;;;18.5;10.55;;;;;;;1.56;80.29199;95743.34;;;;
2020/11/26 04:12:44;;;;;;;18.5;10.55;;;;;;;1.56;80.29199;95743.34;;;;
2020/11/26 04:13:44;;;;;;;18.5;10.55;;;;;;;1.56;80.29199;95743.34;;;;
2020/11/26 04:14:45;;;;;;;18.5;10.55;;;;;;;1.56;80.29199;95743.34;;;;
2020/11/26 04:15:50;;;;;;;18.5;10.55;;;;;;;1.56;80.29199;95743.34;;;;
2020/11/26 04:16:50;;;;;;;17.3;10.55;;;;;;;1.43;80.49805;95754.1;;;;
2020/11/26 04:17:51;;;;;;;17.3;10.55;;;;;;;1.43;80.49805;95754.1;;;;
2020/11/26 04:18:51;;;;;;;17.3;10.55;;;;;;;1.43;80.49805;95754.1;;;;
2020/11/26 04:19:52;;;;;;;17.3;10.55;;;;;;;1.43;80.49805;95754.1;;;;
2020/11/26 04:20:52;;;;;;;17.3;10.55;;;;;;;1.43;80.49805;95754.1;;;;
2020/11/26 04:21:53;;;;;;;17.3;10.55;;;;;;;1.43;80.49805;95754.1;;;;
2020/11/26 04:22:53;;;;;;;17.3;10.55;;;;;;;1.43;80.49805;95754.1;;;;
2020/11/26 04:23:54;;;;;;;17.3;10.55;;;;;;;1.43;80.49805;95754.1;;;;
2020/11/26 04:24:54;;;;;;;17.3;10.55;;;;;;;1.43;80.49805;95754.1;;;;
2020/11/26 04:25:55;;;;;;;17.3;10.55;;;;;;;1.43;80.49805;95754.1;;;;
2020/11/26 04:26:55;;;;;;;17.3;10.55;;;;;;;1.43;80.49805;95754.1;;;;
2020/11/26 04:27:56;;;;;;;16.3;9.200001;;;;;;;1.33;80.83496;95753.83;;;;
2020/11/26 04:28:56;;;;;;;16.3;9.200001;;;;;;;1.33;80.83496;95753.83;;;;
2020/11/26 04:29:57;;;;;;;16.3;9.200001;;;;;;;1.33;80.83496;95753.83;;;;
2020/11/26 04:30:57;;;;;;;16.3;9.200001;;;;;;;1.33;80.83496;95753.83;;;;
2020/11/26 04:31:58;;;;;;;16.3;9.200001;;;;;;;1.33;80.83496;95753.83;;;;
2020/11/26 04:32:58;;;;;;;16.3;9.200001;;;;;;;1.33;80.83496;95753.83;;;;
2020/11/26 04:33:59;;;;;;;16.3;9.200001;;;;;;;1.33;80.83496;95753.83;;;;
2020/11/26 04:34:59;;;;;;;16.3;9.200001;;;;;;;1.33;80.83496;95753.83;;;;
2020/11/26 04:36:00;;;;;;;16.3;9.200001;;;;;;;1.33;80.83496;95753.83;;;;
2020/11/26 04:37:00;;;;;;;16.3;9.200001;;;;;;;1.33;80.83496;95753.83;;;;
2020/11/26 04:38:01;;;;;;;15.3;9.8;;;;;;;1.21;81.11523;95755.19;;;;
2020/11/26 04:39:01;;;;;;;15.3;9.8;;;;;;;1.21;81.11523;95755.19;;;;
2020/11/26 04:40:03;;;;;;;15.3;9.8;;;;;;;1.21;81.11523;95755.19;;;;
2020/11/26 04:41:05;;;;;;;15.3;9.8;;;;;;;1.21;81.11523;95755.19;;;;
2020/11/26 04:42:14;;;;;;;15.3;9.8;;;;;;;1.21;81.11523;95755.19;;;;
2020/11/26 04:43:15;;;;;;;15.3;9.8;;;;;;;1.21;81.11523;95755.19;;;;
2020/11/26 04:44:16;;;;;;;15.3;9.8;;;;;;;1.21;81.11523;95755.19;;;;
2020/11/26 04:45:16;;;;;;;15.3;9.8;;;;;;;1.21;81.11523;95755.19;;;;
2020/11/26 04:46:17;;;;;;;15.3;9.8;;;;;;;1.21;81.11523;95755.19;;;;
2020/11/26 04:47:18;;;;;;;15.3;9.8;;;;;;;1.21;81.11523;95755.19;;;;
2020/11/26 04:48:19;;;;;;;15.3;9.8;;;;;;;1.21;81.11523;95755.19;;;;
2020/11/26 04:49:20;;;;;;;16.8;9.7;;;;;;;1.21;81.34473;95753.86;;;;
2020/11/26 04:50:21;;;;;;;16.8;9.7;;;;;;;1.21;81.34473;95753.86;;;;
2020/11/26 04:51:21;;;;;;;16.8;9.7;;;;;;;1.21;81.34473;95753.86;;;;
2020/11/26 04:52:22;;;;;;;16.8;9.7;;;;;;;1.21;81.34473;95753.86;;;;
2020/11/26 04:53:22;;;;;;;16.8;9.7;;;;;;;1.21;81.34473;95753.86;;;;
2020/11/26 04:54:31;;;;;;;16.8;9.7;;;;;;;1.21;81.34473;95753.86;;;;
2020/11/26 04:55:32;;;;;;;16.8;9.7;;;;;;;1.21;81.34473;95753.86;;;;
2020/11/26 04:56:34;;;;;;;16.8;9.7;;;;;;;1.21;81.34473;95753.86;;;;
2020/11/26 04:57:35;;;;;;;16.8;9.7;;;;;;;1.21;81.34473;95753.86;;;;
2020/11/26 04:58:36;;;;;;;16.8;9.7;;;;;;;1.21;81.34473;95753.86;;;;
2020/11/26 04:59:36;;;;;;;13.65;9.15;;;;;;;1.19;81.2998;95759.42;;;;
2020/11/26 05:00:37;;;;;;;13.65;9.15;;;;;;;1.19;81.2998;95759.42;;;;
2020/11/26 05:01:37;;;;;;;13.65;9.15;;;;;;;1.19;81.2998;95759.42;;;;
2020/11/26 05:02:38;;;;;;;13.65;9.15;;;;;;;1.19;81.2998;95759.42;;;;
2020/11/26 05:03:38;;;;;;;13.65;9.15;;;;;;;1.19;81.2998;95759.42;;;;
2020/11/26 05:04:40;;;;;;;13.65;9.15;;;;;;;1.19;81.2998;95759.42;;;;
2020/11/26 05:05:41;;;;;;;13.65;9.15;;;;;;;1.19;81.2998;95759.42;;;;
2020/11/26 05:06:42;;;;;;;13.65;9.15;;;;;;;1.19;81.2998;95759.42;;;;
2020/11/26 05:07:43;;;;;;;13.65;9.15;;;;;;;1.19;81.2998;95759.42;;;;
2020/11/26 05:08:43;;;;;;;13.65;9.15;;;;;;;1.19;81.2998;95759.42;;;;
2020/11/26 05:09:43;;;;;;;13.65;9.15;;;;;;;1.19;81.2998;95759.42;;;;
2020/11/26 05:10:45;;;;;;;16.7;9.9;;;;;;;1.17;81.08691;95765.43;;;;
2020/11/26 05:11:45;;;;;;;16.7;9.9;;;;;;;1.17;81.08691;95765.43;;;;
2020/11/26 05:12:46;;;;;;;16.7;9.9;;;;;;;1.17;81.08691;95765.43;;;;
2020/11/26 05:13:46;;;;;;;16.7;9.9;;;;;;;1.17;81.08691;95765.43;;;;
2020/11/26 05:14:47;;;;;;;16.7;9.9;;;;;;;1.17;81.08691;95765.43;;;;
2020/11/26 05:15:47;;;;;;;16.7;9.9;;;;;;;1.17;81.08691;95765.43;;;;
2020/11/26 05:16:48;;;;;;;16.7;9.9;;;;;;;1.17;81.08691;95765.43;;;;
2020/11/26 05:17:49;;;;;;;16.7;9.9;;;;;;;1.17;81.08691;95765.43;;;;
2020/11/26 05:18:49;;;;;;;16.7;9.9;;;;;;;1.17;81.08691;95765.43;;;;
2020/11/26 05:19:50;;;;;;;16.7;9.9;;;;;;;1.17;81.08691;95765.43;;;;
2020/11/26 05:20:50;;;;;;;15.85;9.6;;;;;;;1.11;81.13867;95767.41;;;;
2020/11/26 05:21:51;;;;;;;15.85;9.6;;;;;;;1.11;81.13867;95767.41;;;;
2020/11/26 05:22:51;;;;;;;15.85;9.6;;;;;;;1.11;81.13867;95767.41;;;;
2020/11/26 05:23:52;;;;;;;15.85;9.6;;;;;;;1.11;81.13867;95767.41;;;;
2020/11/26 05:24:53;;;;;;;15.85;9.6;;;;;;;1.11;81.13867;95767.41;;;;
2020/11/26 05:25:55;;;;;;;15.85;9.6;;;;;;;1.11;81.13867;95767.41;;;;
2020/11/26 05:26:56;;;;;;;15.85;9.6;;;;;;;1.11;81.13867;95767.41;;;;
2020/11/26 05:27:57;;;;;;;15.85;9.6;;;;;;;1.11;81.13867;95767.41;;;;
2020/11/26 05:28:59;;;;;;;15.85;9.6;;;;;;;1.11;81.13867;95767.41;;;;
2020/11/26 05:30:00;;;;;;;15.85;9.6;;;;;;;1.11;81.13867;95767.41;;;;
2020/11/26 05:31:03;;;;;;;15.85;9.6;;;;;;;1.11;81.13867;95767.41;;;;
2020/11/26 05:32:03;;;;;;;13.25;9.299999;;;;;;;1.06;81.25391;95760.44;;;;
2020/11/26 05:33:04;;;;;;;13.25;9.299999;;;;;;;1.06;81.25391;95760.44;;;;
2020/11/26 05:34:04;;;;;;;13.25;9.299999;;;;;;;1.06;81.25391;95760.44;;;;
2020/11/26 05:35:05;;;;;;;13.25;9.299999;;;;;;;1.06;81.25391;95760.44;;;;
2020/11/26 05:36:06;;;;;;;13.25;9.299999;;;;;;;1.06;81.25391;95760.44;;;;
2020/11/26 05:37:15;;;;;;;13.25;9.299999;;;;;;;1.06;81.25391;95760.44;;;;
2020/11/26 05:38:17;;;;;;;13.25;9.299999;;;;;;;1.06;81.25391;95760.44;;;;
2020/11/26 05:39:19;;;;;;;13.25;9.299999;;;;;;;1.06;81.25391;95760.44;;;;
2020/11/26 05:40:21;;;;;;;13.25;9.299999;;;;;;;1.06;81.25391;95760.44;;;;
2020/11/26 05:41:22;;;;;;;13.25;9.299999;;;;;;;1.06;81.25391;95760.44;;;;
2020/11/26 05:42:23;;;;;;;15.9;9.4;;;;;;;0.99;81.49219;95753.19;;;;
2020/11/26 05:43:24;;;;;;;15.9;9.4;;;;;;;0.99;81.49219;95753.19;;;;
2020/11/26 05:44:27;;;;;;;15.9;9.4;;;;;;;0.99;81.49219;95753.19;;;;
2020/11/26 05:45:27;;;;;;;15.9;9.4;;;;;;;0.99;81.49219;95753.19;;;;